UKHH/HRK METAR and TAF weather

Enter ICAO airport designator
Station Type Date Time Source
UKHH METAR 2019/04/22 20:00 UTC NOAA

UKHH 222000Z 34002MPS CAVOK 13/M05 Q1026 R25/0///81 NOSIG


Station Type Date Time Source
UKHH Decoded METAR 2019/04/22 20:00 UTC NOAA

Kharkiv, Ukraine (UKHH) 49-58N 036-08E 155M
Apr 22, 2019 - 04:00 PM EDT / 2019.04.22 2000 UTC
Wind: from the NNW (340 degrees) at 4 MPH (4 KT):0
Visibility: greater than 7 mile(s):0
Temperature: 55 F (13 C)
Dew Point: 23 F (-5 C)
Relative Humidity: 28%
Pressure (altimeter): 30.30 in. Hg (1026 hPa)
ob: UKHH 222000Z 34002MPS CAVOK 13/M05 Q1026 R25/0///81 NOSIG
cycle: 20

Station Type Date Time Source
UKHH TAF 2019/04/22 18:24 UTC NOAA

TAF UKHH 221710Z 2218/2318 36003MPS 9999 SCT030 TX18/2312Z TN05/2303Z

Example: see airport list